Galena, Nevada Weather observations

Data are for 60 minute period ending nearest time listed.
 Day   Time    Ave.   Ave.  Ave.  Vector   Max.   Total    Solar   
  of    of     Air    Rel.  Wind   Wind    Wind  Precip.   Rad.    
Year   Day     Temp.  Hum.  Speed  Dir.    Gust                    
2026   (PST)    F      %     mph   deg.    mph     in.     W/m2    
------------------------------------------------------------------- 
 125   21:00   57.0    50    4.0   325      9.0    1.16       0  
 125   22:00   54.0    61    1.0   249      5.0    1.16       0  
 125   23:00   52.0    64    3.0   279      7.0    1.16       0  
 126    0:00   51.0    64    1.0   242      5.0    1.16       0  
 126    1:00   50.0    71    1.0   112      4.0    1.16       0  
 126    2:00   49.0    69    1.0   201      4.0    1.16       0  
 126    3:00   50.0    58    5.0     0      9.0    1.16       0  
 126    4:00   50.0    62    3.0    46      9.0    1.16       0  
 126    5:00   49.0    65    1.0   224      5.0    1.16       0  
 126    6:00   52.0    68    2.0    25      6.0    1.16      45  
 126    7:00   58.0    56    3.0    75      6.0    1.16     217  
 126    8:00   60.0    51    7.0    50     11.0    1.16     417  
 126    9:00   62.0    47    9.0    42     16.0    1.16     615  
 126   10:00   65.0    37   10.0    45     17.0    1.16     773  
 126   11:00   68.0    30    7.0    30     19.0    1.16     892  
 126   12:00   70.0    23   10.0    21     17.0    1.16     953  
 126   13:00   72.0    18    6.0    28     18.0    1.16     964  
 126   14:00   72.0    18   10.0    25     18.0    1.16     908  
 126   15:00   73.0    17    7.0    64     16.0    1.16     802  
 126   16:00   73.0    18   10.0    48     13.0    1.16     650  
 126   17:00   73.0    19    6.0    55     14.0    1.16     464  
 126   18:00   71.0    22    5.0     6     12.0    1.16      66  
 126   19:00   64.0    29    4.0   304      7.0    1.16      21  
 126   20:00   61.0    31    5.0   297     10.0    1.16       2  

Return to Galena, Nevada graphs page.


Western Regional Climate Center,wrcc@dri.edu